createdAt,value
2023-02-27T00:02:18.288Z,62.40
2023-02-27T00:04:45.502Z,62.03
2023-02-27T00:07:12.116Z,62.23
2023-02-27T00:09:40.323Z,62.34
2023-02-27T00:12:08.214Z,62.37
2023-02-27T00:14:35.302Z,62.34
2023-02-27T00:17:05.258Z,62.30
2023-02-27T00:19:31.885Z,62.23
2023-02-27T00:21:58.503Z,62.36
2023-02-27T00:24:25.372Z,62.09
2023-02-27T00:26:52.427Z,62.14
2023-02-27T00:29:19.846Z,62.11
2023-02-27T00:31:51.601Z,62.03
2023-02-27T00:34:18.648Z,62.25
2023-02-27T00:36:45.306Z,62.27
2023-02-27T00:39:11.954Z,62.33
2023-02-27T00:41:38.574Z,62.29
2023-02-27T00:44:05.293Z,62.31
2023-02-27T00:46:31.951Z,62.56
2023-02-27T00:48:58.712Z,62.70
2023-02-27T00:51:27.675Z,62.43
2023-02-27T00:53:55.715Z,62.42
2023-02-27T00:56:22.411Z,62.48
2023-02-27T00:58:50.320Z,62.51
2023-02-27T01:01:17.270Z,62.36
2023-02-27T01:03:44.007Z,62.39
2023-02-27T01:06:10.694Z,62.21
2023-02-27T01:08:37.462Z,62.41
2023-02-27T01:11:05.221Z,62.35
2023-02-27T01:13:32.067Z,62.41
2023-02-27T01:15:58.679Z,62.49
2023-02-27T01:18:25.308Z,62.53
2023-02-27T01:20:53.779Z,62.74
2023-02-27T01:23:20.844Z,62.83
2023-02-27T01:25:49.710Z,62.82
2023-02-27T01:28:17.410Z,62.83
2023-02-27T01:30:44.258Z,62.87
2023-02-27T01:33:14.082Z,63.05
2023-02-27T01:35:41.133Z,62.90
2023-02-27T01:38:07.791Z,63.16
2023-02-27T01:40:38.489Z,63.19
2023-02-27T01:43:05.916Z,63.20
2023-02-27T01:45:34.685Z,63.43
2023-02-27T01:48:20.753Z,63.58
2023-02-27T01:50:55.059Z,63.82
2023-02-27T01:53:26.010Z,63.75
2023-02-27T01:55:54.582Z,63.88
2023-02-27T01:58:21.321Z,63.84
2023-02-27T02:00:48.299Z,64.15
2023-02-27T02:03:34.207Z,64.36
2023-02-27T02:06:02.018Z,64.52
2023-02-27T02:08:29.372Z,64.31
2023-02-27T02:10:56.039Z,64.44
2023-02-27T02:13:22.865Z,64.39
2023-02-27T02:16:18.743Z,64.65
2023-02-27T02:19:10.721Z,64.68
2023-02-27T02:22:21.387Z,64.95
2023-02-27T02:25:18.026Z,65.40
2023-02-27T02:28:03.961Z,65.03
2023-02-27T02:30:42.901Z,65.07
2023-02-27T02:33:19.070Z,65.22
2023-02-27T02:36:06.539Z,65.21
2023-02-27T02:38:39.867Z,65.31
2023-02-27T02:41:40.065Z,65.33
2023-02-27T02:44:15.666Z,65.42
2023-02-27T02:47:00.859Z,65.53
2023-02-27T02:49:37.486Z,65.68
2023-02-27T02:52:14.538Z,65.83
2023-02-27T02:54:45.580Z,65.92
2023-02-27T02:57:16.384Z,66.20
2023-02-27T02:59:50.526Z,66.22
2023-02-27T03:02:19.083Z,66.40
2023-02-27T03:04:52.403Z,66.40
2023-02-27T03:07:33.199Z,66.42
2023-02-27T03:10:35.680Z,66.87
2023-02-27T03:13:06.433Z,66.78
2023-02-27T03:15:43.791Z,66.98
2023-02-27T03:18:20.449Z,66.92
2023-02-27T03:21:14.418Z,67.10
2023-02-27T03:23:45.323Z,67.17
2023-02-27T03:26:12.625Z,67.14
2023-02-27T03:28:42.105Z,67.12
2023-02-27T03:31:17.811Z,67.54
2023-02-27T03:33:54.343Z,67.57
2023-02-27T03:36:41.154Z,67.47
2023-02-27T03:39:30.005Z,67.58
2023-02-27T03:42:12.517Z,67.57
2023-02-27T03:45:10.207Z,67.76
2023-02-27T03:47:37.030Z,67.73
2023-02-27T03:50:04.593Z,67.64
2023-02-27T03:52:31.437Z,67.90
2023-02-27T03:55:01.768Z,67.89
2023-02-27T03:57:28.493Z,67.86
2023-02-27T03:59:55.209Z,67.73
2023-02-27T04:02:22.527Z,67.73
2023-02-27T04:04:49.378Z,67.69
2023-02-27T04:07:54.267Z,67.59
2023-02-27T04:10:41.048Z,67.60
2023-02-27T04:13:27.800Z,67.71
2023-02-27T04:16:31.464Z,67.86
2023-02-27T04:19:26.134Z,67.54
2023-02-27T04:22:17.550Z,67.76
2023-02-27T04:24:58.793Z,67.63
2023-02-27T04:27:34.727Z,67.30
2023-02-27T04:30:19.979Z,67.64
2023-02-27T04:32:52.115Z,67.76
2023-02-27T04:35:48.598Z,68.08
2023-02-27T04:38:18.458Z,68.05
2023-02-27T04:40:49.701Z,67.92
2023-02-27T04:43:16.389Z,67.99
2023-02-27T04:45:44.222Z,68.25
2023-02-27T04:48:19.666Z,67.99
2023-02-27T04:51:20.853Z,68.18
2023-02-27T04:53:51.317Z,68.32
2023-02-27T04:56:23.096Z,68.09
2023-02-27T04:58:58.940Z,68.08
2023-02-27T05:01:37.273Z,68.17
2023-02-27T05:04:04.461Z,67.87
2023-02-27T05:06:32.653Z,67.80
2023-02-27T05:09:06.470Z,68.03
2023-02-27T05:11:36.581Z,68.19
2023-02-27T05:14:41.867Z,68.04
2023-02-27T05:17:11.003Z,67.96
2023-02-27T05:19:38.859Z,67.82
2023-02-27T05:22:08.093Z,68.00
2023-02-27T05:24:37.593Z,68.03
2023-02-27T05:27:10.956Z,68.16
2023-02-27T05:29:49.794Z,67.86
2023-02-27T05:32:35.103Z,68.11
2023-02-27T05:35:13.752Z,67.77
2023-02-27T05:37:46.197Z,67.99
2023-02-27T05:40:15.813Z,68.08
2023-02-27T05:42:45.510Z,68.27
2023-02-27T05:45:18.934Z,68.05
2023-02-27T05:47:47.609Z,68.31
2023-02-27T05:50:17.832Z,68.30
2023-02-27T05:52:44.467Z,68.14
2023-02-27T05:55:18.909Z,68.11
2023-02-27T05:57:58.017Z,68.20
2023-02-27T06:00:30.169Z,68.21
2023-02-27T06:02:56.825Z,68.37
2023-02-27T06:05:24.852Z,68.47
2023-02-27T06:07:51.974Z,68.20
2023-02-27T06:10:19.523Z,68.30
2023-02-27T06:12:46.249Z,68.52
2023-02-27T06:15:13.234Z,68.73
2023-02-27T06:17:40.042Z,68.70
2023-02-27T06:20:08.357Z,68.79
2023-02-27T06:22:35.287Z,68.98
2023-02-27T06:25:02.160Z,68.80
2023-02-27T06:27:28.909Z,68.91
2023-02-27T06:29:55.580Z,68.87
2023-02-27T06:32:23.939Z,68.44
2023-02-27T06:34:50.697Z,68.65
2023-02-27T06:37:17.275Z,68.48
2023-02-27T06:39:43.972Z,68.48
2023-02-27T06:42:10.587Z,68.27
2023-02-27T06:44:37.190Z,68.23
2023-02-27T06:47:03.997Z,68.30
2023-02-27T06:49:30.619Z,68.24
2023-02-27T06:51:57.217Z,68.69
2023-02-27T06:54:23.841Z,68.56
2023-02-27T06:56:52.094Z,68.33
2023-02-27T06:59:18.819Z,68.47
2023-02-27T07:01:45.472Z,68.49
2023-02-27T07:04:13.383Z,68.59
2023-02-27T07:07:34.046Z,68.48
2023-02-27T07:09:26.890Z,68.61
2023-02-27T07:11:53.729Z,68.37
2023-02-27T07:14:20.566Z,68.21
2023-02-27T07:16:51.105Z,68.06
2023-02-27T07:19:18.626Z,68.22
2023-02-27T07:21:45.540Z,68.08
2023-02-27T07:24:12.334Z,67.76
2023-02-27T07:26:38.964Z,68.15
2023-02-27T07:29:05.851Z,67.82
2023-02-27T07:31:33.037Z,67.79
2023-02-27T07:33:59.712Z,67.48
2023-02-27T07:36:26.856Z,67.64
2023-02-27T07:38:54.325Z,66.92
2023-02-27T07:41:29.903Z,66.64
2023-02-27T07:44:00.040Z,66.75
2023-02-27T07:46:28.071Z,67.01
2023-02-27T07:48:55.119Z,66.63
2023-02-27T07:51:21.856Z,66.40
2023-02-27T07:53:49.228Z,66.22
2023-02-27T07:56:15.931Z,66.01
2023-02-27T07:58:42.600Z,66.06
2023-02-27T08:01:09.212Z,66.12
2023-02-27T08:03:35.866Z,66.46
2023-02-27T08:06:02.680Z,66.23
2023-02-27T08:08:29.783Z,66.09
2023-02-27T08:10:56.461Z,66.06
2023-02-27T08:13:42.481Z,66.12
2023-02-27T08:16:09.793Z,66.09
2023-02-27T08:18:36.547Z,65.87
2023-02-27T08:21:05.055Z,66.09
2023-02-27T08:23:32.579Z,66.03
2023-02-27T08:25:59.260Z,65.65
2023-02-27T08:28:25.865Z,65.48
2023-02-27T08:30:52.575Z,65.61
2023-02-27T08:33:19.362Z,65.66
2023-02-27T08:35:46.028Z,65.54
2023-02-27T08:38:12.767Z,65.07
2023-02-27T08:40:39.499Z,65.22
2023-02-27T08:43:06.146Z,65.09
2023-02-27T08:45:32.907Z,64.54
2023-02-27T08:47:59.909Z,64.47
2023-02-27T08:50:26.625Z,64.23
2023-02-27T08:52:53.301Z,64.16
2023-02-27T08:55:20.252Z,63.80
2023-02-27T08:57:46.898Z,63.80
2023-02-27T09:00:15.727Z,63.96
2023-02-27T09:02:42.452Z,63.61
2023-02-27T09:05:09.584Z,63.61
2023-02-27T09:07:36.316Z,63.37
2023-02-27T09:10:03.402Z,63.14
2023-02-27T09:12:30.148Z,62.87
2023-02-27T09:14:56.958Z,62.56
2023-02-27T09:17:23.578Z,62.21
2023-02-27T09:19:51.549Z,61.32
2023-02-27T09:22:19.911Z,60.92
2023-02-27T09:24:46.591Z,60.29
2023-02-27T09:27:13.305Z,59.24
2023-02-27T09:29:39.943Z,58.47
2023-02-27T09:32:06.760Z,57.81
2023-02-27T09:34:33.588Z,56.65
2023-02-27T09:37:00.729Z,55.53
2023-02-27T09:39:27.834Z,54.37
2023-02-27T09:42:00.508Z,53.33
2023-02-27T09:44:45.688Z,51.98
2023-02-27T09:47:24.656Z,51.72
2023-02-27T09:50:08.000Z,51.12
2023-02-27T09:52:36.884Z,49.25
2023-02-27T09:55:11.303Z,48.22
2023-02-27T09:57:53.556Z,47.96
2023-02-27T10:00:27.833Z,46.75
2023-02-27T10:02:59.633Z,46.01
2023-02-27T10:05:35.686Z,45.82
2023-02-27T10:08:14.516Z,46.02
2023-02-27T10:11:06.770Z,45.73
2023-02-27T10:13:43.849Z,45.27
2023-02-27T10:16:12.093Z,45.27
2023-02-27T10:19:02.294Z,44.82
2023-02-27T10:21:35.092Z,44.94
2023-02-27T10:24:17.240Z,45.16
2023-02-27T10:26:44.269Z,45.61
2023-02-27T10:29:17.984Z,45.68
2023-02-27T10:31:44.842Z,46.11
2023-02-27T10:34:13.417Z,46.30
2023-02-27T10:36:41.324Z,46.18
2023-02-27T10:39:08.392Z,46.90
2023-02-27T10:41:35.980Z,46.77
2023-02-27T10:44:02.686Z,47.21
2023-02-27T10:46:31.385Z,47.18
2023-02-27T10:49:00.365Z,47.18
2023-02-27T10:51:36.326Z,47.56
2023-02-27T10:54:18.717Z,47.79
2023-02-27T10:56:47.928Z,48.05
2023-02-27T10:59:17.947Z,47.88
2023-02-27T11:01:57.655Z,48.24
2023-02-27T11:04:48.984Z,48.29
2023-02-27T11:07:18.531Z,48.33
2023-02-27T11:09:45.284Z,48.12
2023-02-27T11:12:20.241Z,48.26
2023-02-27T11:14:54.657Z,48.48
2023-02-27T11:17:32.844Z,48.56
2023-02-27T11:20:00.854Z,48.68
2023-02-27T11:22:29.499Z,49.19
2023-02-27T11:25:22.548Z,49.46
2023-02-27T11:27:49.325Z,49.48
2023-02-27T11:30:28.215Z,49.21
2023-02-27T11:32:56.600Z,49.29
2023-02-27T11:35:34.629Z,49.67
2023-02-27T11:38:06.552Z,49.43
2023-02-27T11:40:34.724Z,48.80
2023-02-27T11:43:06.085Z,48.88
2023-02-27T11:46:23.802Z,48.91
2023-02-27T11:48:32.641Z,49.10
2023-02-27T11:51:11.769Z,48.69
2023-02-27T11:53:47.518Z,48.57
2023-02-27T11:56:19.981Z,48.31
2023-02-27T11:59:13.250Z,48.33
2023-02-27T12:01:53.771Z,48.39
2023-02-27T12:04:29.341Z,47.72
2023-02-27T12:07:01.375Z,47.60
2023-02-27T12:09:31.347Z,47.37
2023-02-27T12:11:58.288Z,47.15
2023-02-27T12:14:59.578Z,46.96
2023-02-27T12:17:40.627Z,47.34
2023-02-27T12:20:32.253Z,47.41
2023-02-27T12:22:58.868Z,47.53
2023-02-27T12:25:30.277Z,47.60
2023-02-27T12:28:03.008Z,47.57
2023-02-27T12:30:34.140Z,47.51
2023-02-27T12:33:25.697Z,47.24
2023-02-27T12:36:00.118Z,47.38
2023-02-27T12:38:26.833Z,47.39
2023-02-27T12:41:07.284Z,47.37
2023-02-27T12:43:43.055Z,47.63
2023-02-27T12:46:28.918Z,47.66
2023-02-27T12:49:12.198Z,47.57
2023-02-27T12:52:33.034Z,47.27
2023-02-27T12:55:02.598Z,47.37
2023-02-27T12:57:33.525Z,47.11
2023-02-27T13:00:39.888Z,47.05
2023-02-27T13:03:24.126Z,47.24
2023-02-27T13:05:56.100Z,47.37
2023-02-27T13:08:50.615Z,47.37
2023-02-27T13:11:32.912Z,47.21
2023-02-27T13:14:01.464Z,47.58
2023-02-27T13:16:43.812Z,47.64
2023-02-27T13:19:24.774Z,47.43
2023-02-27T13:21:53.606Z,47.56
2023-02-27T13:24:27.457Z,47.49
2023-02-27T13:27:02.221Z,47.87
2023-02-27T13:29:35.496Z,47.82
2023-02-27T13:32:05.546Z,47.76
2023-02-27T13:34:32.453Z,47.95
2023-02-27T13:37:02.520Z,48.29
2023-02-27T13:39:41.463Z,48.39
2023-02-27T13:42:28.315Z,48.78
2023-02-27T13:45:01.518Z,49.08
2023-02-27T13:47:30.930Z,49.18
2023-02-27T13:49:59.038Z,49.50
2023-02-27T13:52:44.069Z,49.62
2023-02-27T13:55:28.248Z,49.97
2023-02-27T13:57:57.537Z,49.99
2023-02-27T14:00:26.258Z,49.85
2023-02-27T14:03:00.368Z,49.86
2023-02-27T14:05:41.690Z,49.85
2023-02-27T14:08:16.500Z,49.88
2023-02-27T14:10:58.326Z,49.59
2023-02-27T14:13:49.907Z,49.30
2023-02-27T14:16:38.478Z,49.57
2023-02-27T14:19:22.432Z,49.54
2023-02-27T14:22:19.589Z,49.68
2023-02-27T14:25:01.998Z,49.66
2023-02-27T14:27:32.211Z,49.75
2023-02-27T14:30:01.158Z,49.88
2023-02-27T14:32:35.126Z,49.92
2023-02-27T14:35:01.853Z,49.98
2023-02-27T14:37:28.658Z,49.98
2023-02-27T14:39:55.845Z,50.08
2023-02-27T14:42:58.150Z,50.08
2023-02-27T14:45:25.284Z,50.31
2023-02-27T14:47:52.096Z,50.28
2023-02-27T14:50:24.322Z,50.62
2023-02-27T14:52:50.993Z,50.33
2023-02-27T14:55:18.889Z,50.52
2023-02-27T14:58:10.085Z,50.54
2023-02-27T15:00:38.140Z,50.56
2023-02-27T15:03:29.189Z,50.68
2023-02-27T15:05:59.405Z,50.93
2023-02-27T15:08:32.545Z,50.50
2023-02-27T15:10:59.292Z,50.66
2023-02-27T15:13:28.039Z,50.50
2023-02-27T15:16:23.823Z,50.48
2023-02-27T15:18:52.439Z,50.70
2023-02-27T15:21:21.403Z,50.34
2023-02-27T15:23:59.340Z,50.43
2023-02-27T15:26:26.256Z,50.35
2023-02-27T15:28:53.374Z,50.66
2023-02-27T15:31:22.863Z,50.54
2023-02-27T15:33:50.257Z,50.49
2023-02-27T15:36:20.000Z,50.73
2023-02-27T15:38:46.698Z,50.79
2023-02-27T15:41:13.816Z,50.74
2023-02-27T15:43:40.425Z,50.71
2023-02-27T15:46:07.106Z,50.71
2023-02-27T15:48:34.020Z,50.66
2023-02-27T15:51:02.681Z,50.82
2023-02-27T15:53:30.779Z,50.97
2023-02-27T15:55:58.951Z,51.09
2023-02-27T15:58:36.612Z,51.11
2023-02-27T16:01:08.488Z,51.26
2023-02-27T16:03:43.104Z,51.05
2023-02-27T16:06:12.594Z,51.27
2023-02-27T16:08:43.471Z,50.93
2023-02-27T16:11:18.984Z,51.30
2023-02-27T16:13:45.674Z,51.12
2023-02-27T16:16:21.458Z,51.50
2023-02-27T16:18:50.029Z,51.50
2023-02-27T16:21:18.477Z,51.64
2023-02-27T16:23:45.417Z,51.42
2023-02-27T16:26:17.590Z,51.64
2023-02-27T16:28:52.310Z,51.43
2023-02-27T16:31:29.330Z,51.50
2023-02-27T16:33:58.305Z,51.30
2023-02-27T16:36:27.104Z,51.33
2023-02-27T16:38:54.120Z,51.32
2023-02-27T16:41:21.991Z,51.23
2023-02-27T16:43:49.022Z,51.31
2023-02-27T16:46:20.423Z,51.22
2023-02-27T16:48:54.034Z,50.90
2023-02-27T16:51:24.246Z,51.42
2023-02-27T16:53:51.878Z,51.23
2023-02-27T16:56:23.717Z,51.11
2023-02-27T16:58:53.157Z,51.23
2023-02-27T17:01:19.998Z,51.46
2023-02-27T17:03:47.038Z,51.38
2023-02-27T17:06:15.712Z,51.40
2023-02-27T17:08:44.163Z,51.30
2023-02-27T17:11:10.937Z,51.60
2023-02-27T17:13:37.971Z,51.46
2023-02-27T17:16:05.329Z,51.55
2023-02-27T17:18:32.460Z,52.00
2023-02-27T17:21:03.126Z,51.79
2023-02-27T17:23:30.133Z,51.77
2023-02-27T17:25:57.013Z,51.73
2023-02-27T17:28:23.952Z,51.79
2023-02-27T17:30:50.670Z,52.25
2023-02-27T17:33:17.549Z,52.17
2023-02-27T17:35:44.161Z,52.40
2023-02-27T17:38:10.960Z,52.28
2023-02-27T17:40:39.361Z,52.23
2023-02-27T17:43:06.185Z,52.55
2023-02-27T17:45:33.008Z,52.23
2023-02-27T17:47:59.728Z,52.32
2023-02-27T17:50:26.574Z,51.98
2023-02-27T17:52:53.205Z,52.20
2023-02-27T17:55:19.951Z,52.49
2023-02-27T17:57:46.607Z,52.65
2023-02-27T18:00:15.207Z,52.40
2023-02-27T18:02:43.806Z,52.45
2023-02-27T18:05:10.667Z,52.51
2023-02-27T18:07:37.437Z,52.53
2023-02-27T18:10:05.534Z,52.68
2023-02-27T18:12:32.256Z,52.75
2023-02-27T18:14:58.988Z,53.00
2023-02-27T18:17:25.919Z,52.87
2023-02-27T18:19:52.786Z,53.04
2023-02-27T18:22:21.789Z,53.17
2023-02-27T18:24:49.231Z,53.09
2023-02-27T18:27:15.876Z,52.77
2023-02-27T18:29:43.748Z,52.82
2023-02-27T18:32:10.730Z,52.94
2023-02-27T18:34:39.697Z,52.67
2023-02-27T18:37:06.692Z,52.91
2023-02-27T18:39:33.465Z,52.66
2023-02-27T18:42:00.146Z,52.72
2023-02-27T18:44:26.844Z,52.89
2023-02-27T18:46:53.581Z,53.04
2023-02-27T18:49:20.359Z,52.89
2023-02-27T18:51:47.164Z,52.96
2023-02-27T18:54:14.022Z,53.04
2023-02-27T18:56:40.836Z,52.80
2023-02-27T18:59:07.852Z,52.80
2023-02-27T19:01:36.899Z,53.01
2023-02-27T19:04:05.036Z,53.17
2023-02-27T19:06:37.034Z,53.09
2023-02-27T19:09:05.413Z,52.92
2023-02-27T19:11:33.562Z,53.05
2023-02-27T19:14:04.852Z,53.15
2023-02-27T19:16:32.363Z,53.44
2023-02-27T19:19:00.111Z,52.74
2023-02-27T19:21:27.701Z,52.87
2023-02-27T19:23:54.462Z,52.92
2023-02-27T19:26:21.425Z,52.76
2023-02-27T19:28:53.784Z,52.79
2023-02-27T19:31:21.222Z,52.56
2023-02-27T19:33:47.961Z,52.80
2023-02-27T19:36:15.894Z,52.95
2023-02-27T19:38:42.585Z,52.77
2023-02-27T19:41:11.026Z,52.46
2023-02-27T19:43:38.656Z,52.42
2023-02-27T19:46:11.159Z,52.38
2023-02-27T19:48:38.469Z,52.37
2023-02-27T19:51:05.862Z,52.42
2023-02-27T19:53:33.995Z,52.24
2023-02-27T19:56:01.525Z,52.41
2023-02-27T19:58:29.213Z,52.63
2023-02-27T20:00:55.981Z,52.75
2023-02-27T20:03:25.937Z,52.83
2023-02-27T20:05:52.599Z,53.10
2023-02-27T20:08:19.246Z,52.95
2023-02-27T20:10:57.393Z,53.09
2023-02-27T20:13:24.388Z,53.23
2023-02-27T20:15:58.586Z,53.55
2023-02-27T20:18:27.605Z,53.39
2023-02-27T20:21:07.842Z,53.27
2023-02-27T20:23:36.142Z,53.20
2023-02-27T20:26:26.598Z,52.69
2023-02-27T20:28:54.813Z,52.77
2023-02-27T20:31:24.435Z,52.93
2023-02-27T20:33:51.619Z,52.83
2023-02-27T20:36:18.217Z,52.79
2023-02-27T20:38:44.815Z,52.76
2023-02-27T20:41:13.566Z,52.99
2023-02-27T20:43:43.037Z,52.53
2023-02-27T20:46:11.934Z,52.99
2023-02-27T20:48:38.880Z,52.80
2023-02-27T20:51:11.332Z,52.76
2023-02-27T20:53:39.451Z,53.09
2023-02-27T20:56:07.810Z,53.18
2023-02-27T20:58:34.585Z,52.97
2023-02-27T21:01:09.871Z,53.24
2023-02-27T21:03:40.170Z,53.19
2023-02-27T21:06:08.168Z,53.06
2023-02-27T21:08:42.913Z,53.25
2023-02-27T21:11:10.506Z,53.26
2023-02-27T21:13:37.522Z,53.33
2023-02-27T21:16:07.577Z,53.09
2023-02-27T21:18:34.411Z,53.20
2023-02-27T21:21:05.655Z,53.20
2023-02-27T21:23:32.762Z,53.30
2023-02-27T21:25:59.420Z,53.40
2023-02-27T21:28:26.269Z,53.22
2023-02-27T21:30:55.808Z,53.46
2023-02-27T21:33:22.487Z,53.26
2023-02-27T21:35:49.279Z,53.19
2023-02-27T21:38:16.610Z,53.25
2023-02-27T21:40:43.280Z,52.99
2023-02-27T21:43:10.072Z,52.98
2023-02-27T21:45:41.534Z,52.94
2023-02-27T21:48:08.580Z,52.99
2023-02-27T21:50:36.021Z,52.98
2023-02-27T21:53:02.676Z,53.16
2023-02-27T21:55:29.442Z,53.15
2023-02-27T21:57:58.819Z,52.76
2023-02-27T22:00:28.617Z,52.95
2023-02-27T22:02:55.246Z,52.99
2023-02-27T22:05:22.317Z,52.87
2023-02-27T22:07:49.264Z,52.98
2023-02-27T22:10:16.104Z,53.05
2023-02-27T22:12:42.854Z,52.81
2023-02-27T22:15:10.604Z,53.02
2023-02-27T22:17:37.360Z,52.97
2023-02-27T22:20:06.977Z,53.00
2023-02-27T22:22:33.673Z,53.11
2023-02-27T22:25:00.442Z,53.08
2023-02-27T22:27:27.386Z,53.11
2023-02-27T22:29:54.328Z,53.28
2023-02-27T22:32:21.137Z,53.40
2023-02-27T22:34:47.802Z,53.21
2023-02-27T22:37:16.216Z,53.33
2023-02-27T22:39:42.993Z,53.30
2023-02-27T22:42:09.762Z,53.44
2023-02-27T22:44:36.519Z,53.49
2023-02-27T22:47:03.140Z,53.60
2023-02-27T22:49:29.891Z,53.77
2023-02-27T22:51:56.497Z,53.80
2023-02-27T22:54:23.264Z,53.86
2023-02-27T22:56:53.289Z,53.85
2023-02-27T22:59:20.444Z,53.92
2023-02-27T23:01:48.800Z,53.91
2023-02-27T23:04:17.302Z,53.91
2023-02-27T23:06:44.328Z,53.98
2023-02-27T23:09:12.523Z,53.93
2023-02-27T23:11:39.209Z,54.13
2023-02-27T23:14:05.939Z,54.08
2023-02-27T23:16:32.653Z,53.98
2023-02-27T23:18:59.813Z,53.99
2023-02-27T23:21:29.713Z,54.07
2023-02-27T23:23:58.109Z,54.17
2023-02-27T23:26:28.764Z,54.28
2023-02-27T23:28:56.266Z,54.34
2023-02-27T23:31:23.231Z,54.42
2023-02-27T23:33:50.380Z,54.38
2023-02-27T23:36:16.962Z,54.34
2023-02-27T23:38:46.975Z,54.17
2023-02-27T23:41:16.841Z,54.27
2023-02-27T23:43:47.270Z,54.37
2023-02-27T23:46:15.399Z,54.18
2023-02-27T23:48:42.488Z,54.42
2023-02-27T23:51:09.543Z,54.53
2023-02-27T23:53:37.106Z,54.81
2023-02-27T23:56:23.535Z,54.71
2023-02-27T23:59:00.808Z,54.64
